Westport, Washington
Current Conditions -  °F | °C
As of 4:53 PM on Monday 22 Dec 2014 (Local Time) from KHQM Reporting Station
Overcast Overcast  
Wind Chill: 47°   Ceiling: 10000
Heat Index: 49°   Visibility: 7mi
Dew Point: 46°   Wind: 6mph
Humidity: 90%   Direction: 40°NE
Pressure: 30.33"   Gusts: NA
Location:  46.89°N, 124.1°W
Report Text: KHQM 230053Z AUTO 04005KT 7SM OVC100 09/08 A3033 RMK AO2 SLP275 T00940078
Loading
Personal Weather Stations






























Interactive Weather Map New forecast layout! Learn more

10-Day Weather Forecast

Advertisements
Track Severe Weather on mobile